Axtell, Nebraska
Current Conditions -  °F | °C
As of 7:55 AM on Thursday 30 Oct 2014 (Local Time) from KHDE Reporting Station
Clear Clear  
Wind Chill: 35°   Ceiling: Unl
Heat Index: 41°   Visibility: 10mi
Dew Point: 29°   Wind: 9mph
Humidity: 63%   Direction: 300°WNW
Pressure: 30.15"   Gusts: NA
Location:  40.48°N, 99.13°W
Report Text: KHDE 301255Z AUTO 30008KT 10SM CLR 05/M02 A3015 RMK AO2 T00481017
Loading
Personal Weather Stations






























Interactive Weather Map
Tropical Storm Tracking
New forecast layout! Learn more

10-Day Weather Forecast

Advertisements
Track Severe Weather on mobile